Time;durP1;ratioP1;P1;durP2;ratioP2;P2;SDS_P1;SDS_P2;PMS_P1;PMS_P2;Temp;Humidity;BMP_temperature;BMP_pressure;BME280_temperature;BME280_humidity;BME280_pressure;Samples;Min_cycle;Max_cycle;Signal;HPM_P1;HPM_P2
2021/08/06 00:02:04;;;;;;;34.78;6.00;;;20.40;85.80;;;;;;5018029;28;20144;-60
2021/08/06 00:04:30;;;;;;;23.63;4.78;;;20.40;85.80;;;;;;5003074;28;20608;-63
2021/08/06 00:06:56;;;;;;;19.35;4.80;;;20.40;85.80;;;;;;5018278;28;20132;-60
2021/08/06 00:09:21;;;;;;;20.42;4.50;;;20.40;85.80;;;;;;5020075;28;20116;-60
2021/08/06 00:11:47;;;;;;;22.48;5.53;;;20.40;85.90;;;;;;5019192;28;20033;-59
2021/08/06 00:14:12;;;;;;;23.33;5.13;;;20.40;85.80;;;;;;5022459;28;20046;-59
2021/08/06 00:16:38;;;;;;;19.45;4.80;;;20.40;85.80;;;;;;5024544;28;20034;-59
2021/08/06 00:19:03;;;;;;;17.58;4.43;;;20.40;85.80;;;;;;5007092;28;20103;-60
2021/08/06 00:21:29;;;;;;;27.20;4.32;;;20.40;85.70;;;;;;5024597;28;20430;-59
2021/08/06 00:23:55;;;;;;;26.08;4.47;;;20.40;85.70;;;;;;5022924;28;20781;-60
2021/08/06 00:26:20;;;;;;;25.55;4.70;;;20.30;85.60;;;;;;5023412;28;20560;-59
2021/08/06 00:28:46;;;;;;;15.23;4.00;;;20.30;85.50;;;;;;5023310;28;20410;-59
2021/08/06 00:31:11;;;;;;;21.27;5.57;;;20.30;85.50;;;;;;5006746;28;20029;-59
2021/08/06 00:33:37;;;;;;;18.67;6.15;;;20.30;85.50;;;;;;5021928;28;20029;-60
2021/08/06 00:36:03;;;;;;;19.90;5.93;;;20.30;85.50;;;;;;5024076;28;20128;-59
2021/08/06 00:38:28;;;;;;;14.68;7.18;;;20.30;85.50;;;;;;5023221;28;20029;-60
2021/08/06 00:40:54;;;;;;;17.90;7.85;;;20.20;85.40;;;;;;5023242;28;20049;-59
2021/08/06 00:43:20;;;;;;;18.95;6.15;;;20.30;85.40;;;;;;5024688;28;20033;-59
2021/08/06 00:45:46;;;;;;;18.08;6.90;;;20.20;85.40;;;;;;5023924;28;20225;-59
2021/08/06 00:48:11;;;;;;;14.63;7.07;;;20.20;85.40;;;;;;5024438;28;21763;-59
2021/08/06 00:50:37;;;;;;;13.15;5.78;;;20.20;85.40;;;;;;5022698;28;20530;-59
2021/08/06 00:53:02;;;;;;;17.92;5.82;;;20.20;85.40;;;;;;5022053;28;20120;-59
2021/08/06 00:55:28;;;;;;;13.02;5.30;;;20.20;85.50;;;;;;5022070;28;20072;-59
2021/08/06 00:57:53;;;;;;;12.50;4.70;;;20.20;85.50;;;;;;5024757;28;20049;-59
2021/08/06 01:00:19;;;;;;;10.23;5.20;;;20.20;85.70;;;;;;5006858;28;20444;-59
2021/08/06 01:03:23;;;;;;;14.85;5.57;;;20.20;85.70;;;;;;5023721;28;20039;-59
2021/08/06 01:06:00;;;;;;;9.40;4.53;;;20.20;85.70;;;;;;5000955;28;20901;-59
2021/08/06 01:08:36;;;;;;;10.75;4.55;;;20.20;85.90;;;;;;5023073;28;20061;-59
2021/08/06 01:11:02;;;;;;;;;;;20.20;86.00;;;;;;5008465;28;20029;-59
2021/08/06 01:13:32;;;;;;;8.45;4.47;;;20.10;86.00;;;;;;5022635;28;19909;-59
2021/08/06 01:16:00;;;;;;;14.45;5.20;;;20.10;86.00;;;;;;5024452;28;20025;-59
2021/08/06 01:18:25;;;;;;;10.02;4.30;;;20.10;86.10;;;;;;4988931;28;20137;-60
2021/08/06 01:20:53;;;;;;;11.23;5.00;;;20.10;86.10;;;;;;5006111;28;20151;-60
2021/08/06 01:23:29;;;;;;;7.75;3.97;;;20.10;86.30;;;;;;5021672;28;20121;-59
2021/08/06 01:25:57;;;;;;;11.25;4.63;;;20.10;86.30;;;;;;5019811;28;20034;-59
2021/08/06 01:28:24;;;;;;;7.82;3.80;;;20.10;86.40;;;;;;5024090;28;20095;-60
2021/08/06 01:30:50;;;;;;;8.95;3.80;;;20.10;86.60;;;;;;5022322;28;20034;-60
2021/08/06 01:33:16;;;;;;;6.82;4.38;;;20.10;86.70;;;;;;5020259;28;20042;-60
2021/08/06 01:35:41;;;;;;;10.00;3.92;;;20.10;86.80;;;;;;5023175;28;20300;-59
2021/08/06 01:38:08;;;;;;;10.40;3.70;;;20.10;86.80;;;;;;5022076;28;20033;-60
2021/08/06 01:40:40;;;;;;;7.75;3.30;;;20.10;86.90;;;;;;5022628;28;20029;-59
2021/08/06 01:43:18;;;;;;;5.95;3.78;;;20.00;87.00;;;;;;5022385;28;20033;-60
2021/08/06 01:45:46;;;;;;;4.93;3.42;;;20.10;87.10;;;;;;5020203;28;20084;-59
2021/08/06 01:48:12;;;;;;;7.32;3.63;;;20.10;87.20;;;;;;5005701;28;20049;-59
2021/08/06 01:50:40;;;;;;;5.13;3.00;;;20.00;87.20;;;;;;5005994;28;20278;-60
2021/08/06 01:53:10;;;;;;;7.72;3.38;;;20.00;87.30;;;;;;5022231;28;20473;-59
2021/08/06 01:55:40;;;;;;;5.85;3.05;;;20.00;87.30;;;;;;5019695;28;20083;-59
2021/08/06 01:58:06;;;;;;;6.05;3.30;;;20.00;87.40;;;;;;5019944;28;20038;-59
2021/08/06 02:00:32;;;;;;;5.97;3.20;;;20.00;88.00;;;;;;5002388;28;20038;-61
2021/08/06 02:02:57;;;;;;;4.80;2.97;;;20.00;87.40;;;;;;5022047;28;20108;-61
2021/08/06 02:05:23;;;;;;;5.32;3.35;;;20.00;87.40;;;;;;5023699;28;20131;-62
2021/08/06 02:07:48;;;;;;;6.50;3.47;;;20.00;87.40;;;;;;5022394;28;20069;-61
2021/08/06 02:10:15;;;;;;;6.60;3.83;;;20.00;87.40;;;;;;5023439;28;20108;-61
2021/08/06 02:12:41;;;;;;;5.57;4.18;;;20.00;87.50;;;;;;4989178;28;20532;-62
2021/08/06 02:15:07;;;;;;;6.95;4.28;;;20.00;87.60;;;;;;5022037;28;20072;-62
2021/08/06 02:17:33;;;;;;;10.50;5.78;;;20.00;87.60;;;;;;5020886;28;20037;-62
2021/08/06 02:19:59;;;;;;;9.55;6.10;;;20.00;87.70;;;;;;5022712;28;20033;-61
2021/08/06 02:22:24;;;;;;;10.25;6.00;;;20.00;87.70;;;;;;5004780;28;20064;-62
2021/08/06 02:24:50;;;;;;;12.48;5.57;;;19.90;87.70;;;;;;5019853;28;20049;-61
2021/08/06 02:27:16;;;;;;;8.65;5.20;;;19.90;87.70;;;;;;5021015;28;20030;-60
2021/08/06 02:29:42;;;;;;;5.80;5.30;;;19.90;87.70;;;;;;5005549;28;20032;-60
2021/08/06 02:32:08;;;;;;;8.52;5.22;;;19.90;87.80;;;;;;5022211;28;20056;-60
2021/08/06 02:34:33;;;;;;;7.00;5.20;;;19.90;87.80;;;;;;5020559;28;20037;-59
2021/08/06 02:36:59;;;;;;;7.85;5.22;;;19.90;87.80;;;;;;5019528;28;20095;-59
2021/08/06 02:39:27;;;;;;;7.97;5.63;;;19.90;87.80;;;;;;5023525;28;20033;-60
2021/08/06 02:41:56;;;;;;;10.30;5.47;;;19.90;87.80;;;;;;5023429;28;20088;-59
2021/08/06 02:44:22;;;;;;;5.07;4.50;;;19.90;87.90;;;;;;5020651;28;20453;-60
2021/08/06 02:46:48;;;;;;;7.63;5.10;;;19.90;87.90;;;;;;5022346;28;20037;-59
2021/08/06 02:49:13;;;;;;;7.47;5.10;;;19.90;87.90;;;;;;5020067;28;20041;-59
2021/08/06 02:51:39;;;;;;;7.97;5.18;;;19.90;87.90;;;;;;5020547;28;20037;-60
2021/08/06 02:54:04;;;;;;;5.50;4.78;;;19.80;87.80;;;;;;5020691;28;20021;-59
2021/08/06 02:56:30;;;;;;;5.93;4.60;;;19.80;87.80;;;;;;5018982;28;20084;-60
2021/08/06 02:58:55;;;;;;;5.70;4.80;;;19.80;87.90;;;;;;5022250;28;20101;-60
2021/08/06 03:01:21;;;;;;;6.43;5.05;;;19.80;87.90;;;;;;5023067;28;20101;-59
2021/08/06 03:03:47;;;;;;;9.75;4.25;;;19.80;88.00;;;;;;5019371;28;20091;-59
2021/08/06 03:06:12;;;;;;;5.65;4.35;;;19.80;88.40;;;;;;5021897;28;20033;-59
2021/08/06 03:08:38;;;;;;;6.05;3.78;;;19.80;88.00;;;;;;5021787;28;20072;-60
2021/08/06 03:11:03;;;;;;;5.32;3.58;;;19.80;88.10;;;;;;5022847;28;20052;-59
2021/08/06 03:13:29;;;;;;;6.68;3.72;;;19.80;88.10;;;;;;5022090;28;20345;-59
2021/08/06 03:15:54;;;;;;;6.57;3.80;;;19.80;88.20;;;;;;5019851;28;20045;-59
2021/08/06 03:18:20;;;;;;;3.83;3.20;;;19.80;88.30;;;;;;5021592;28;20457;-59
2021/08/06 03:20:45;;;;;;;3.70;3.05;;;19.80;88.50;;;;;;5018278;28;20061;-59
2021/08/06 03:23:11;;;;;;;3.90;3.10;;;19.80;88.60;;;;;;5018792;28;20120;-59
2021/08/06 03:25:36;;;;;;;4.63;2.72;;;19.80;88.60;;;;;;5021139;28;20120;-59
2021/08/06 03:28:02;;;;;;;4.35;3.25;;;19.70;88.80;;;;;;5019134;28;20025;-59
2021/08/06 03:30:27;;;;;;;6.95;2.72;;;19.70;88.90;;;;;;5001855;28;20052;-59
2021/08/06 03:32:53;;;;;;;7.68;2.92;;;19.70;89.00;;;;;;5020385;28;20025;-60
2021/08/06 03:35:18;;;;;;;4.30;2.47;;;19.70;89.20;;;;;;5020814;28;20334;-59
2021/08/06 03:37:44;;;;;;;3.45;2.55;;;19.70;89.30;;;;;;5002888;28;21134;-59
2021/08/06 03:40:11;;;;;;;4.75;2.70;;;19.70;89.50;;;;;;5019940;28;20455;-59
2021/08/06 03:42:36;;;;;;;3.55;2.53;;;19.70;89.50;;;;;;5019568;28;20038;-59
2021/08/06 03:45:03;;;;;;;3.67;2.90;;;19.70;89.60;;;;;;5021606;28;20489;-60
2021/08/06 03:47:28;;;;;;;5.10;2.42;;;19.60;90.20;;;;;;5020072;28;20430;-59
2021/08/06 03:49:54;;;;;;;5.05;3.10;;;19.60;90.00;;;;;;5019615;28;20184;-59
2021/08/06 03:52:19;;;;;;;3.60;2.50;;;19.60;90.00;;;;;;5020975;28;20136;-59
2021/08/06 03:54:45;;;;;;;4.20;2.50;;;19.60;90.10;;;;;;5021295;28;20041;-59
2021/08/06 03:57:10;;;;;;;5.50;2.50;;;19.60;90.20;;;;;;5019547;28;20160;-59
2021/08/06 03:59:36;;;;;;;7.38;2.72;;;19.60;90.20;;;;;;5001205;28;20429;-59
2021/08/06 04:02:01;;;;;;;3.33;2.08;;;19.60;90.30;;;;;;5022098;28;20033;-60
2021/08/06 04:04:27;;;;;;;3.80;2.22;;;19.60;90.30;;;;;;5021740;28;20029;-59
2021/08/06 04:06:52;;;;;;;5.82;2.55;;;19.60;90.30;;;;;;5018997;28;20021;-59
2021/08/06 04:09:18;;;;;;;8.50;2.88;;;19.60;90.30;;;;;;5020663;28;20046;-60
2021/08/06 04:11:43;;;;;;;6.53;2.58;;;19.60;90.30;;;;;;5021196;28;20048;-59
2021/08/06 04:14:09;;;;;;;5.72;2.08;;;19.60;90.30;;;;;;5020272;28;20030;-60
2021/08/06 04:16:35;;;;;;;4.78;2.42;;;19.50;90.30;;;;;;5004324;28;20026;-59
2021/08/06 04:19:00;;;;;;;4.25;2.10;;;19.50;90.20;;;;;;5019619;28;20030;-60
2021/08/06 04:21:26;;;;;;;5.90;2.08;;;19.60;90.30;;;;;;5019427;28;20037;-61
2021/08/06 04:23:51;;;;;;;6.97;2.20;;;19.60;90.30;;;;;;5020819;28;20048;-61
2021/08/06 04:26:17;;;;;;;4.43;2.28;;;19.50;90.30;;;;;;5018418;28;20414;-61
2021/08/06 04:28:42;;;;;;;5.15;1.85;;;19.50;90.30;;;;;;5020663;28;20042;-61
2021/08/06 04:31:08;;;;;;;2.47;2.05;;;19.50;90.30;;;;;;5005039;28;20033;-61
2021/08/06 04:33:33;;;;;;;4.68;2.30;;;19.50;90.40;;;;;;5018585;28;20123;-61
2021/08/06 04:35:59;;;;;;;5.75;2.30;;;19.50;90.30;;;;;;5019744;28;20050;-62
2021/08/06 04:38:25;;;;;;;7.03;2.20;;;19.50;90.30;;;;;;5020261;28;20033;-61
2021/08/06 04:40:50;;;;;;;2.67;2.00;;;19.50;90.30;;;;;;5004681;28;20030;-59
2021/08/06 04:43:16;;;;;;;3.58;2.40;;;19.50;90.30;;;;;;5020845;28;20428;-59
2021/08/06 04:45:42;;;;;;;6.60;2.17;;;19.40;90.30;;;;;;5021122;28;20112;-59
2021/08/06 04:48:07;;;;;;;4.30;2.00;;;19.40;90.50;;;;;;5019610;28;20128;-59
2021/08/06 04:50:33;;;;;;;3.90;2.05;;;19.50;90.40;;;;;;5021272;28;20025;-59
2021/08/06 04:52:59;;;;;;;2.90;2.10;;;19.50;90.40;;;;;;5014312;28;20190;-59
2021/08/06 04:55:25;;;;;;;3.35;1.70;;;19.50;90.40;;;;;;5017222;28;20055;-59
2021/08/06 04:57:51;;;;;;;3.40;2.00;;;19.40;90.40;;;;;;5017809;28;20749;-58
2021/08/06 05:00:17;;;;;;;2.63;2.00;;;19.40;90.40;;;;;;5003237;28;20030;-59
2021/08/06 05:02:42;;;;;;;4.30;1.98;;;19.40;90.40;;;;;;5020446;28;20449;-59
2021/08/06 05:05:08;;;;;;;3.28;1.75;;;19.40;90.40;;;;;;5022318;28;20048;-59
2021/08/06 05:07:34;;;;;;;5.57;2.10;;;19.40;90.40;;;;;;5023442;28;20338;-58
2021/08/06 05:09:59;;;;;;;5.45;2.13;;;19.40;90.40;;;;;;5023594;28;20501;-59
2021/08/06 05:12:25;;;;;;;3.60;2.05;;;19.40;90.40;;;;;;5020886;28;20080;-59
2021/08/06 05:14:50;;;;;;;5.00;1.90;;;19.40;90.40;;;;;;5020253;28;20779;-60
2021/08/06 05:17:16;;;;;;;4.63;1.83;;;19.40;90.40;;;;;;5020668;28;20029;-59
2021/08/06 05:19:42;;;;;;;3.00;1.73;;;19.40;90.50;;;;;;5024319;28;20041;-60
2021/08/06 05:22:07;;;;;;;3.72;1.90;;;19.40;90.50;;;;;;5020434;28;20041;-58
2021/08/06 05:24:33;;;;;;;1.55;1.38;;;19.40;90.50;;;;;;5019109;28;20116;-59
2021/08/06 05:26:58;;;;;;;2.10;1.52;;;19.40;90.50;;;;;;5021748;28;20116;-59
2021/08/06 05:29:24;;;;;;;4.13;1.95;;;19.40;90.50;;;;;;5005238;28;20344;-59
2021/08/06 05:31:50;;;;;;;2.08;1.80;;;19.40;90.50;;;;;;5024998;28;20099;-59
2021/08/06 05:34:15;;;;;;;4.43;2.00;;;19.40;90.50;;;;;;5022785;28;20409;-59
2021/08/06 05:36:41;;;;;;;5.82;1.95;;;19.40;90.50;;;;;;5023982;28;20040;-59
2021/08/06 05:39:06;;;;;;;4.43;2.00;;;19.40;90.40;;;;;;5023260;28;20143;-59
2021/08/06 05:41:32;;;;;;;2.42;1.60;;;19.40;90.40;;;;;;5024487;28;20029;-59
2021/08/06 05:43:57;;;;;;;3.00;1.50;;;19.40;90.40;;;;;;5024943;28;20025;-59
2021/08/06 05:46:23;;;;;;;2.35;1.80;;;19.40;90.40;;;;;;5024385;28;20079;-59
2021/08/06 05:48:48;;;;;;;2.03;1.40;;;19.40;90.40;;;;;;5023125;28;20545;-59
2021/08/06 05:51:14;;;;;;;3.80;1.65;;;19.40;90.40;;;;;;5024130;28;20030;-59
2021/08/06 05:53:39;;;;;;;4.15;1.88;;;19.40;90.40;;;;;;5022724;28;20513;-59
2021/08/06 05:56:05;;;;;;;5.38;1.83;;;19.40;90.40;;;;;;5023931;28;20473;-59
2021/08/06 05:58:30;;;;;;;5.47;1.77;;;19.40;90.40;;;;;;5021492;28;20037;-59
2021/08/06 06:00:56;;;;;;;3.15;2.00;;;19.40;90.50;;;;;;5022647;28;20038;-59
2021/08/06 06:03:22;;;;;;;5.72;1.60;;;19.40;90.50;;;;;;5022316;28;20040;-59
2021/08/06 06:05:47;;;;;;;3.58;1.80;;;19.40;90.60;;;;;;5022728;28;20072;-59
2021/08/06 06:08:13;;;;;;;2.67;1.70;;;19.40;90.60;;;;;;5003723;28;20473;-57
2021/08/06 06:10:38;;;;;;;3.42;1.35;;;19.40;90.50;;;;;;5019722;28;20051;-59
2021/08/06 06:13:04;;;;;;;2.33;1.58;;;19.40;90.50;;;;;;5019108;28;20030;-59
2021/08/06 06:15:29;;;;;;;2.22;1.40;;;19.40;90.60;;;;;;5019630;28;20042;-59
2021/08/06 06:17:55;;;;;;;6.25;1.67;;;19.40;90.60;;;;;;5020178;28;20992;-59
2021/08/06 06:20:21;;;;;;;3.35;1.65;;;19.40;90.60;;;;;;5020706;28;20108;-59
2021/08/06 06:22:46;;;;;;;2.65;1.80;;;19.40;90.60;;;;;;5019684;28;20061;-58
2021/08/06 06:25:12;;;;;;;2.03;1.63;;;19.40;90.70;;;;;;5019904;28;20172;-59
2021/08/06 06:27:48;;;;;;;4.70;1.67;;;19.40;90.70;;;;;;5021723;28;20052;-59
2021/08/06 06:30:14;;;;;;;5.25;1.58;;;19.40;90.70;;;;;;5020205;28;20030;-59
2021/08/06 06:32:39;;;;;;;2.53;1.83;;;19.40;90.70;;;;;;5019356;28;20040;-59
2021/08/06 06:35:05;;;;;;;2.40;1.70;;;19.40;91.10;;;;;;5021124;28;20040;-59
2021/08/06 06:37:31;;;;;;;2.97;1.50;;;19.40;90.80;;;;;;5022495;28;20060;-59
2021/08/06 06:39:56;;;;;;;7.28;1.80;;;19.40;90.80;;;;;;5019697;28;20845;-59
2021/08/06 06:42:22;;;;;;;6.43;2.00;;;19.50;90.90;;;;;;5021116;28;20045;-58
2021/08/06 06:44:47;;;;;;;3.55;1.88;;;19.40;90.90;;;;;;5020880;28;20049;-59
2021/08/06 06:47:13;;;;;;;10.73;2.20;;;19.50;90.90;;;;;;5020878;28;20025;-59
2021/08/06 06:49:38;;;;;;;8.82;2.13;;;19.50;90.80;;;;;;5021339;28;20029;-59
2021/08/06 06:52:04;;;;;;;4.97;2.10;;;19.50;90.80;;;;;;5019498;28;20462;-59
2021/08/06 06:54:29;;;;;;;9.20;2.40;;;19.50;90.90;;;;;;5019089;28;20043;-59
2021/08/06 06:56:55;;;;;;;15.55;2.50;;;19.50;91.00;;;;;;5021101;28;20048;-59
2021/08/06 06:59:20;;;;;;;15.95;2.70;;;19.50;91.00;;;;;;5019988;28;20121;-58
2021/08/06 07:01:46;;;;;;;21.60;3.38;;;19.60;91.00;;;;;;4999253;28;20631;-59
2021/08/06 07:04:11;;;;;;;50.38;6.05;;;19.60;91.10;;;;;;5018479;28;20025;-59
2021/08/06 07:06:37;;;;;;;60.83;5.55;;;19.60;91.50;;;;;;5020067;28;20535;-59
2021/08/06 07:09:07;;;;;;;33.95;4.63;;;19.60;91.80;;;;;;5021943;28;20033;-59
2021/08/06 07:11:32;;;;;;;48.22;5.20;;;19.60;91.80;;;;;;5019982;28;20044;-59
2021/08/06 07:13:58;;;;;;;33.38;4.68;;;19.60;91.80;;;;;;5019373;28;20029;-59
2021/08/06 07:16:23;;;;;;;36.60;3.72;;;19.60;91.90;;;;;;5020529;28;20102;-59
2021/08/06 07:18:49;;;;;;;28.55;4.32;;;19.60;91.90;;;;;;5018022;28;20713;-59
2021/08/06 07:21:14;;;;;;;39.70;4.07;;;19.60;91.70;;;;;;5016028;28;20025;-59
2021/08/06 07:23:40;;;;;;;44.75;5.05;;;19.60;91.90;;;;;;5017381;28;20049;-58
2021/08/06 07:26:06;;;;;;;29.08;4.90;;;19.60;92.00;;;;;;5015058;28;20049;-59
2021/08/06 07:28:31;;;;;;;32.35;4.93;;;19.60;92.00;;;;;;5017281;28;20030;-59
2021/08/06 07:30:57;;;;;;;51.70;5.38;;;19.60;92.00;;;;;;5018658;28;20184;-58
2021/08/06 07:33:22;;;;;;;36.92;4.45;;;19.60;92.30;;;;;;5019444;28;20407;-59
2021/08/06 07:35:48;;;;;;;70.68;7.35;;;19.70;92.20;;;;;;5018721;28;20416;-59
2021/08/06 07:38:13;;;;;;;48.97;6.07;;;19.70;92.30;;;;;;5014933;28;20787;-59
2021/08/06 07:40:39;;;;;;;50.53;5.78;;;19.70;92.30;;;;;;5018812;28;20480;-59
2021/08/06 07:43:05;;;;;;;36.75;4.90;;;19.70;92.20;;;;;;5019320;28;20087;-59
2021/08/06 07:45:31;;;;;;;54.95;5.85;;;19.70;92.20;;;;;;5017770;28;20068;-59
2021/08/06 07:47:56;;;;;;;36.60;5.15;;;19.70;92.30;;;;;;5017463;28;20041;-59
2021/08/06 07:50:22;;;;;;;55.85;5.95;;;19.70;92.40;;;;;;5018044;28;20416;-59
2021/08/06 07:52:47;;;;;;;44.47;6.30;;;19.80;92.70;;;;;;5015177;28;20389;-60
2021/08/06 07:55:13;;;;;;;41.17;6.07;;;19.80;92.30;;;;;;5014719;28;20103;-59
2021/08/06 07:57:39;;;;;;;47.15;6.13;;;19.80;92.20;;;;;;4985106;28;20033;-59
2021/08/06 08:00:05;;;;;;;48.75;6.45;;;19.90;92.20;;;;;;5019085;28;20017;-59
2021/08/06 08:02:32;;;;;;;59.72;5.57;;;19.90;92.00;;;;;;5018303;28;20037;-59
2021/08/06 08:04:57;;;;;;;54.92;5.28;;;19.90;91.90;;;;;;5017053;28;20084;-59
2021/08/06 08:07:23;;;;;;;50.90;5.32;;;20.00;91.80;;;;;;5016687;28;20104;-61
2021/08/06 08:09:48;;;;;;;30.95;4.20;;;20.00;91.60;;;;;;5011376;28;20064;-61
2021/08/06 08:12:14;;;;;;;44.85;4.38;;;20.00;91.50;;;;;;5014246;28;20030;-62
2021/08/06 08:14:39;;;;;;;39.75;4.60;;;20.00;91.40;;;;;;5016335;28;20061;-61
2021/08/06 08:17:05;;;;;;;48.25;5.25;;;20.00;91.20;;;;;;5018486;28;20034;-61
2021/08/06 08:19:31;;;;;;;39.03;5.43;;;20.10;91.00;;;;;;5015937;28;20029;-62
2021/08/06 08:21:56;;;;;;;51.05;6.50;;;20.10;91.10;;;;;;5017516;28;20152;-59
2021/08/06 08:24:22;;;;;;;47.45;5.20;;;20.10;90.60;;;;;;5017284;28;20056;-59
2021/08/06 08:26:47;;;;;;;73.30;5.78;;;20.10;90.50;;;;;;5015416;28;20052;-59
2021/08/06 08:29:13;;;;;;;61.22;5.53;;;20.10;90.40;;;;;;5017136;28;20550;-59
2021/08/06 08:31:38;;;;;;;56.22;5.82;;;20.10;90.50;;;;;;5014254;28;20073;-59
2021/08/06 08:34:04;;;;;;;59.80;6.22;;;20.20;90.50;;;;;;5016884;28;20056;-59
2021/08/06 08:36:29;;;;;;;48.30;5.78;;;20.20;90.30;;;;;;4987929;28;20127;-59
2021/08/06 08:38:55;;;;;;;120.25;12.07;;;20.20;90.30;;;;;;5018041;28;20029;-59
2021/08/06 08:41:21;;;;;;;76.35;9.00;;;20.20;90.40;;;;;;5018770;28;20453;-59
2021/08/06 08:43:46;;;;;;;62.05;6.97;;;20.20;90.30;;;;;;5001726;28;20069;-59
2021/08/06 08:46:12;;;;;;;85.03;8.57;;;20.30;90.30;;;;;;5015906;28;20030;-59
2021/08/06 08:48:37;;;;;;;104.80;9.30;;;20.30;90.10;;;;;;5012153;28;20068;-58
2021/08/06 08:51:03;;;;;;;65.22;7.07;;;20.30;90.00;;;;;;4999143;28;20060;-58
2021/08/06 08:53:29;;;;;;;46.05;5.25;;;20.30;89.90;;;;;;5013351;28;20087;-60
2021/08/06 08:55:55;;;;;;;52.08;5.35;;;20.40;89.50;;;;;;5017631;28;20631;-58
2021/08/06 08:58:20;;;;;;;54.63;5.90;;;20.40;89.40;;;;;;4980671;28;20158;-60
2021/08/06 09:00:46;;;;;;;43.50;6.72;;;20.40;89.20;;;;;;5017194;28;20549;-59
2021/08/06 09:03:37;;;;;;;47.72;6.43;;;20.40;89.00;;;;;;4995311;28;20057;-59
2021/08/06 09:06:03;;;;;;;49.20;6.40;;;20.50;88.80;;;;;;5018887;28;20024;-58
2021/08/06 09:08:29;;;;;;;83.68;9.10;;;20.50;88.30;;;;;;5012386;28;20127;-60
2021/08/06 09:10:54;;;;;;;57.00;7.30;;;20.50;87.90;;;;;;5017694;28;20065;-59
2021/08/06 09:13:21;;;;;;;55.92;6.60;;;20.60;87.30;;;;;;5011639;28;20030;-59
2021/08/06 09:15:47;;;;;;;63.03;7.45;;;20.60;87.10;;;;;;5015244;28;20040;-59
2021/08/06 09:18:26;;;;;;;45.03;5.20;;;20.60;87.10;;;;;;5014622;28;20030;-59
2021/08/06 09:20:55;;;;;;;44.65;6.43;;;20.60;86.90;;;;;;5013372;28;20074;-59
2021/08/06 09:23:43;;;;;;;60.55;7.25;;;20.60;87.00;;;;;;5014613;28;20052;-59
2021/08/06 09:26:27;;;;;;;63.35;6.82;;;20.60;86.60;;;;;;5015655;28;20179;-59
2021/08/06 09:29:12;;;;;;;52.72;7.18;;;20.60;86.60;;;;;;5016531;28;20033;-59
2021/08/06 09:31:57;;;;;;;54.88;6.15;;;20.70;86.80;;;;;;5015087;28;20068;-59
2021/08/06 09:34:31;;;;;;;43.28;5.28;;;20.70;85.80;;;;;;4998518;28;20112;-59
2021/08/06 09:36:59;;;;;;;60.65;5.68;;;20.80;85.50;;;;;;5017826;28;20018;-59
2021/08/06 09:39:25;;;;;;;36.75;4.25;;;20.80;85.00;;;;;;5015472;28;20064;-59
2021/08/06 09:41:51;;;;;;;43.50;4.55;;;20.80;84.80;;;;;;5002446;28;21420;-59
2021/08/06 09:44:21;;;;;;;32.92;4.13;;;20.80;84.40;;;;;;5018703;28;20126;-60
2021/08/06 09:46:47;;;;;;;39.45;5.28;;;20.80;84.10;;;;;;4998267;28;20421;-59
2021/08/06 09:49:12;;;;;;;27.70;3.78;;;20.80;83.70;;;;;;4999406;28;20049;-60
2021/08/06 09:51:39;;;;;;;24.60;3.60;;;20.80;83.60;;;;;;5011760;28;20033;-59
2021/08/06 09:54:24;;;;;;;31.95;4.68;;;20.90;83.40;;;;;;5033077;28;20021;-59
2021/08/06 09:57:03;;;;;;;28.67;3.80;;;20.90;83.10;;;;;;5018959;28;20021;-59
2021/08/06 09:59:30;;;;;;;26.83;3.65;;;20.90;82.10;;;;;;5016643;28;20048;-59
2021/08/06 10:02:25;;;;;;;25.27;4.13;;;21.00;81.20;;;;;;5001806;28;20142;-59
2021/08/06 10:05:05;;;;;;;21.83;3.30;;;21.00;80.80;;;;;;5044265;28;20047;-59
2021/08/06 10:07:33;;;;;;;28.20;3.88;;;21.00;80.50;;;;;;5014282;28;20025;-60
2021/08/06 10:09:59;;;;;;;33.60;4.95;;;21.00;79.80;;;;;;5012968;28;20535;-60
2021/08/06 10:12:24;;;;;;;24.63;4.35;;;21.00;79.70;;;;;;5015575;28;20041;-59
2021/08/06 10:14:50;;;;;;;23.38;3.92;;;21.10;79.80;;;;;;4997820;28;20565;-60
2021/08/06 10:17:15;;;;;;;77.95;7.43;;;21.10;79.70;;;;;;5016548;28;20021;-59
2021/08/06 10:19:41;;;;;;;51.88;6.30;;;21.10;79.40;;;;;;5018010;28;20030;-59
2021/08/06 10:22:07;;;;;;;44.75;5.13;;;21.10;79.10;;;;;;5003070;28;20042;-60
2021/08/06 10:24:33;;;;;;;67.28;8.50;;;21.20;79.00;;;;;;5018267;28;20567;-60
2021/08/06 10:26:59;;;;;;;91.90;8.57;;;21.20;78.30;;;;;;5018612;28;20121;-61
2021/08/06 10:29:24;;;;;;;41.67;5.50;;;21.30;77.80;;;;;;5019589;28;20029;-59
2021/08/06 10:32:12;;;;;;;36.92;5.10;;;21.30;77.70;;;;;;5016483;28;20168;-60
2021/08/06 10:35:02;;;;;;;52.92;5.65;;;21.30;77.20;;;;;;5019721;28;20072;-60
2021/08/06 10:37:59;;;;;;;53.85;6.22;;;21.40;76.30;;;;;;5019549;28;20034;-60
2021/08/06 10:40:48;;;;;;;32.55;4.35;;;21.30;76.30;;;;;;5018114;28;20156;-60
2021/08/06 10:43:14;;;;;;;40.25;4.90;;;21.40;75.80;;;;;;5004516;28;20445;-60
2021/08/06 10:45:46;;;;;;;37.58;5.68;;;21.40;75.10;;;;;;5016677;28;20390;-59
2021/08/06 10:48:30;;;;;;;40.22;4.78;;;21.40;75.30;;;;;;5018880;28;20037;-59
2021/08/06 10:51:17;;;;;;;25.67;4.53;;;21.40;75.60;;;;;;5020739;28;20034;-60
2021/08/06 10:53:43;;;;;;;31.52;4.55;;;21.50;75.40;;;;;;5018239;28;20489;-60
2021/08/06 10:56:18;;;;;;;35.35;3.50;;;21.50;75.50;;;;;;5018773;28;20036;-60
2021/08/06 10:58:50;;;;;;;33.40;4.80;;;21.50;76.10;;;;;;5017736;28;20554;-59
2021/08/06 11:01:25;;;;;;;43.55;4.35;;;21.50;75.40;;;;;;5019088;28;20699;-60
2021/08/06 11:03:53;;;;;;;22.07;3.33;;;21.60;75.40;;;;;;5019793;28;20079;-60
2021/08/06 11:06:37;;;;;;;27.20;3.70;;;21.60;75.00;;;;;;5015499;28;20311;-60
2021/08/06 11:09:09;;;;;;;40.00;3.55;;;21.70;74.90;;;;;;5016756;28;20385;-59
2021/08/06 11:11:49;;;;;;;14.65;2.70;;;21.70;74.50;;;;;;5017566;28;20037;-59
2021/08/06 11:14:24;;;;;;;26.02;3.40;;;21.80;73.80;;;;;;5017598;28;20045;-59
2021/08/06 11:17:03;;;;;;;22.05;3.05;;;21.80;74.00;;;;;;5015784;28;20041;-60
2021/08/06 11:19:38;;;;;;;14.43;2.33;;;21.90;73.80;;;;;;5049509;28;20060;-60
2021/08/06 11:22:10;;;;;;;22.85;3.55;;;21.90;73.00;;;;;;5012228;28;20053;-60
2021/08/06 11:24:37;;;;;;;16.33;2.50;;;21.90;73.00;;;;;;5017189;28;20091;-59
2021/08/06 11:27:04;;;;;;;29.08;3.67;;;21.90;72.80;;;;;;5018487;28;20052;-59
2021/08/06 11:29:30;;;;;;;29.45;3.10;;;22.00;73.30;;;;;;5019798;28;20402;-60
2021/08/06 11:32:14;;;;;;;27.70;3.03;;;22.10;73.10;;;;;;5020165;28;20029;-60
2021/08/06 11:34:50;;;;;;;24.40;3.30;;;22.10;73.20;;;;;;5018833;28;20060;-60
2021/08/06 11:37:16;;;;;;;23.08;3.58;;;22.20;73.60;;;;;;5012167;28;20034;-60
2021/08/06 11:40:06;;;;;;;38.15;3.40;;;22.30;73.60;;;;;;5018090;28;20040;-60
2021/08/06 11:42:32;;;;;;;41.97;3.85;;;22.30;73.50;;;;;;5015315;28;20029;-60
2021/08/06 11:44:57;;;;;;;32.42;4.40;;;22.40;74.00;;;;;;5018353;28;21738;-59
2021/08/06 11:47:42;;;;;;;51.42;6.32;;;22.40;73.60;;;;;;5016756;28;20272;-60
2021/08/06 11:50:18;;;;;;;62.40;6.85;;;22.50;73.40;;;;;;5017376;28;20034;-60
2021/08/06 11:52:50;;;;;;;66.20;7.03;;;22.50;73.00;;;;;;5017620;28;20025;-59
2021/08/06 11:55:20;;;;;;;74.40;8.25;;;22.60;72.80;;;;;;5015063;28;20119;-60
2021/08/06 11:57:50;;;;;;;45.25;6.13;;;22.60;72.60;;;;;;5013839;28;20113;-60
2021/08/06 12:00:20;;;;;;;70.30;6.72;;;22.70;72.90;;;;;;5015178;28;20194;-59
2021/08/06 12:02:46;;;;;;;53.97;6.07;;;22.70;73.10;;;;;;5014265;28;20044;-60
2021/08/06 12:05:21;;;;;;;48.95;6.15;;;22.70;72.90;;;;;;5011908;28;20034;-60
2021/08/06 12:07:47;;;;;;;45.75;5.10;;;22.70;73.00;;;;;;5012351;28;20163;-60
2021/08/06 12:10:12;;;;;;;47.03;5.55;;;22.70;73.00;;;;;;5013855;28;20097;-60
2021/08/06 12:12:38;;;;;;;36.15;4.38;;;22.70;73.00;;;;;;5018742;28;20041;-60
2021/08/06 12:15:25;;;;;;;23.75;4.03;;;22.70;73.10;;;;;;5017395;28;20456;-61
2021/08/06 12:18:12;;;;;;;48.42;5.90;;;22.70;73.40;;;;;;5021873;28;20104;-60
2021/08/06 12:20:46;;;;;;;45.30;4.80;;;22.70;73.50;;;;;;5022951;28;20033;-60
2021/08/06 12:23:12;;;;;;;34.92;5.15;;;22.70;73.40;;;;;;5018994;28;20136;-62
2021/08/06 12:25:37;;;;;;;45.80;5.85;;;22.80;73.20;;;;;;5019129;28;20120;-61
2021/08/06 12:28:03;;;;;;;40.72;5.05;;;22.80;73.10;;;;;;5003611;28;20030;-60
2021/08/06 12:30:30;;;;;;;34.90;4.68;;;22.80;73.10;;;;;;5021755;28;20069;-59
2021/08/06 12:32:56;;;;;;;47.03;6.03;;;22.90;72.50;;;;;;5005490;28;20135;-60
2021/08/06 12:35:24;;;;;;;52.20;6.13;;;22.90;72.60;;;;;;5009157;28;20465;-60
2021/08/06 12:37:49;;;;;;;76.47;7.40;;;23.00;72.60;;;;;;5020582;28;20450;-59
2021/08/06 12:40:15;;;;;;;35.78;3.72;;;23.00;72.90;;;;;;5021733;28;20025;-60
2021/08/06 12:42:40;;;;;;;56.50;7.57;;;23.00;72.70;;;;;;5022078;28;20022;-59
2021/08/06 12:45:10;;;;;;;64.22;7.07;;;23.20;72.40;;;;;;5021537;28;20029;-60